createdAt,value
2019-03-05T00:01:24.195Z,98874.38
2019-03-05T00:03:56.156Z,98868.36
2019-03-05T00:06:27.796Z,98873.59
2019-03-05T00:08:59.526Z,98872.72
2019-03-05T00:11:31.528Z,98870.19
2019-03-05T00:14:02.876Z,98867.91
2019-03-05T00:16:34.544Z,98853.89
2019-03-05T00:19:06.085Z,98867.53
2019-03-05T00:21:37.675Z,98861.42
2019-03-05T00:24:44.173Z,98862.73
2019-03-05T00:27:15.856Z,98861.77
2019-03-05T00:30:20.897Z,98866.22
2019-03-05T00:33:03.652Z,98868.36
2019-03-05T00:36:17.660Z,98864.44
2019-03-05T00:39:31.994Z,98868.31
2019-03-05T00:42:40.327Z,98871.80
2019-03-05T00:45:47.445Z,98873.98
2019-03-05T00:49:14.658Z,98865.26
2019-03-05T00:52:26.152Z,98884.92
2019-03-05T00:55:29.949Z,98875.80
2019-03-05T00:58:22.007Z,98887.10
2019-03-05T01:01:27.278Z,98875.77
2019-03-05T01:04:39.245Z,98891.89
2019-03-05T01:07:10.922Z,98886.31
2019-03-05T01:09:42.452Z,98877.59
2019-03-05T01:12:14.926Z,98890.11
2019-03-05T01:14:47.084Z,98893.81
2019-03-05T01:17:18.659Z,98883.26
2019-03-05T01:19:50.218Z,98891.98
2019-03-05T01:22:21.843Z,98888.18
2019-03-05T01:24:53.445Z,98895.20
2019-03-05T01:27:25.040Z,98897.59
2019-03-05T01:29:56.621Z,98904.16
2019-03-05T01:32:42.278Z,98907.21
2019-03-05T01:35:21.573Z,98916.00
2019-03-05T01:37:53.193Z,98914.34
2019-03-05T01:40:29.116Z,98919.56
2019-03-05T01:43:00.743Z,98921.34
2019-03-05T01:45:32.360Z,98929.08
2019-03-05T01:48:03.728Z,98928.17
2019-03-05T01:50:35.296Z,98933.40
2019-03-05T01:53:07.227Z,98929.95
2019-03-05T01:55:38.818Z,98926.50
2019-03-05T01:58:10.424Z,98940.02
2019-03-05T02:00:42.193Z,98938.81
2019-03-05T02:03:14.117Z,98937.62
2019-03-05T02:05:45.950Z,98952.00
2019-03-05T02:08:18.313Z,98938.97
2019-03-05T02:10:50.142Z,98948.56
2019-03-05T02:13:22.131Z,98954.30
2019-03-05T02:15:53.501Z,98945.18
2019-03-05T02:18:27.524Z,98942.64
2019-03-05T02:21:00.138Z,98944.49
2019-03-05T02:24:02.038Z,98942.86
2019-03-05T02:27:10.065Z,98948.19
2019-03-05T02:30:17.328Z,98948.63
2019-03-05T02:33:32.084Z,98952.65
2019-03-05T02:36:15.688Z,98951.81
2019-03-05T02:39:19.816Z,98943.17
2019-03-05T02:41:58.483Z,98945.89
2019-03-05T02:45:07.403Z,98949.77
2019-03-05T02:48:12.210Z,98950.27
2019-03-05T02:51:15.121Z,98951.21
2019-03-05T02:54:30.081Z,98949.80
2019-03-05T02:57:08.918Z,98944.61
2019-03-05T02:59:41.015Z,98949.44
2019-03-05T03:02:30.173Z,98954.36
2019-03-05T03:05:09.466Z,98970.42
2019-03-05T03:07:41.254Z,98965.30
2019-03-05T03:10:24.065Z,98967.45
2019-03-05T03:12:55.830Z,98974.00
2019-03-05T03:15:27.347Z,98973.20
2019-03-05T03:17:59.097Z,98978.45
2019-03-05T03:20:30.718Z,98981.06
2019-03-05T03:23:02.357Z,98982.86
2019-03-05T03:25:34.091Z,98984.23
2019-03-05T03:28:06.648Z,98977.33
2019-03-05T03:30:38.269Z,98974.31
2019-03-05T03:33:09.840Z,98988.26
2019-03-05T03:35:41.419Z,98991.89
2019-03-05T03:38:13.065Z,98971.94
2019-03-05T03:40:44.540Z,98966.28
2019-03-05T03:43:16.283Z,98989.30
2019-03-05T03:45:47.976Z,98998.03
2019-03-05T03:48:19.589Z,98984.14
2019-03-05T03:50:51.319Z,98993.27
2019-03-05T03:53:23.152Z,99002.03
2019-03-05T03:55:54.654Z,98997.68
2019-03-05T03:58:26.619Z,98999.05
2019-03-05T04:00:59.109Z,98997.22
2019-03-05T04:03:30.843Z,98999.89
2019-03-05T04:06:02.710Z,99021.16
2019-03-05T04:08:34.390Z,99018.55
2019-03-05T04:11:06.044Z,99014.23
2019-03-05T04:13:38.205Z,99007.33
2019-03-05T04:16:09.941Z,99015.53
2019-03-05T04:18:41.553Z,99026.44
2019-03-05T04:21:13.123Z,99024.67
2019-03-05T04:23:44.679Z,99019.45
2019-03-05T04:26:16.121Z,99027.17
2019-03-05T04:28:47.407Z,99025.84
2019-03-05T04:31:19.111Z,99020.21
2019-03-05T04:33:50.723Z,99019.84
2019-03-05T04:36:21.993Z,99021.98
2019-03-05T04:38:53.660Z,99022.84
2019-03-05T04:41:25.259Z,99014.91
2019-03-05T04:43:57.017Z,99027.12
2019-03-05T04:46:33.238Z,99023.29
2019-03-05T04:49:09.577Z,99005.86
2019-03-05T04:51:42.593Z,99018.09
2019-03-05T04:54:14.934Z,99025.89
2019-03-05T04:56:46.430Z,99026.44
2019-03-05T04:59:18.325Z,99023.36
2019-03-05T05:01:50.002Z,99035.48
2019-03-05T05:04:21.293Z,99032.50
2019-03-05T05:06:54.390Z,99034.27
2019-03-05T05:09:26.263Z,99035.56
2019-03-05T05:11:58.231Z,99048.08
2019-03-05T05:14:29.763Z,99039.02
2019-03-05T05:17:01.272Z,99032.09
2019-03-05T05:19:32.993Z,99038.53
2019-03-05T05:22:04.498Z,99040.72
2019-03-05T05:24:36.047Z,99039.32
2019-03-05T05:27:07.321Z,99048.92
2019-03-05T05:29:38.930Z,99055.06
2019-03-05T05:32:10.502Z,99040.19
2019-03-05T05:34:42.332Z,99060.53
2019-03-05T05:37:13.914Z,99054.06
2019-03-05T05:40:21.234Z,99061.81
2019-03-05T05:42:52.906Z,99053.87
2019-03-05T05:45:25.810Z,99053.03
2019-03-05T05:47:57.353Z,99043.34
2019-03-05T05:50:28.962Z,99054.60
2019-03-05T05:53:01.942Z,99050.34
2019-03-05T05:55:33.635Z,99049.87
2019-03-05T05:58:05.203Z,99045.84
2019-03-05T06:00:38.617Z,99060.61
2019-03-05T06:03:10.280Z,99054.98
2019-03-05T06:05:41.705Z,99060.58
2019-03-05T06:08:14.585Z,99046.04
2019-03-05T06:10:46.442Z,99059.47
2019-03-05T06:13:17.931Z,99072.91
2019-03-05T06:15:49.454Z,99056.14
2019-03-05T06:18:21.121Z,99053.53
2019-03-05T06:20:52.805Z,99059.47
2019-03-05T06:23:24.471Z,99065.00
2019-03-05T06:25:55.851Z,99061.45
2019-03-05T06:28:27.740Z,99055.08
2019-03-05T06:30:59.204Z,99060.44
2019-03-05T06:33:30.451Z,99067.85
2019-03-05T06:36:02.416Z,99086.02
2019-03-05T06:38:34.369Z,99061.34
2019-03-05T06:41:07.660Z,99062.82
2019-03-05T06:43:39.138Z,99076.44
2019-03-05T06:46:11.677Z,99071.90
2019-03-05T06:48:43.173Z,99075.25
2019-03-05T06:51:14.789Z,99066.71
2019-03-05T06:53:46.509Z,99064.87
2019-03-05T06:56:17.840Z,99069.67
2019-03-05T06:58:49.511Z,99069.63
2019-03-05T07:01:21.486Z,99091.39
2019-03-05T07:03:52.858Z,99065.75
2019-03-05T07:06:49.334Z,99071.92
2019-03-05T07:09:33.580Z,99060.08
2019-03-05T07:12:47.135Z,99061.48
2019-03-05T07:15:37.996Z,99082.62
2019-03-05T07:18:16.815Z,99068.70
2019-03-05T07:21:20.466Z,99059.73
2019-03-05T07:24:13.734Z,99071.45
2019-03-05T07:26:45.286Z,99073.95
2019-03-05T07:29:18.079Z,99072.66
2019-03-05T07:31:49.835Z,99079.32
2019-03-05T07:34:22.970Z,99083.41
2019-03-05T07:36:54.452Z,99077.13
2019-03-05T07:39:26.056Z,99088.86
2019-03-05T07:41:57.434Z,99095.83
2019-03-05T07:44:29.007Z,99108.31
2019-03-05T07:47:00.584Z,99096.37
2019-03-05T07:49:42.934Z,99110.91
2019-03-05T07:52:05.723Z,99101.93
2019-03-05T07:54:37.173Z,99095.28
2019-03-05T07:57:08.879Z,99095.64
2019-03-05T07:59:40.341Z,99100.39
2019-03-05T08:02:11.759Z,99097.27
2019-03-05T08:04:43.174Z,99114.94
2019-03-05T08:07:15.074Z,99116.62
2019-03-05T08:09:46.709Z,99122.99
2019-03-05T08:12:46.304Z,99128.89
2019-03-05T08:16:02.090Z,99135.71
2019-03-05T08:18:24.676Z,99135.48
2019-03-05T08:20:56.185Z,99152.00
2019-03-05T08:23:27.961Z,99170.81
2019-03-05T08:26:00.222Z,99157.41
2019-03-05T08:28:31.978Z,99171.16
2019-03-05T08:31:03.779Z,99172.47
2019-03-05T08:33:35.519Z,99195.41
2019-03-05T08:36:08.297Z,99178.72
2019-03-05T08:38:39.996Z,99196.23
2019-03-05T08:41:32.339Z,99201.08
2019-03-05T08:44:21.464Z,99199.83
2019-03-05T08:46:52.856Z,99201.83
2019-03-05T08:49:24.477Z,99207.63
2019-03-05T08:51:56.022Z,99208.63
2019-03-05T08:54:27.593Z,99206.61
2019-03-05T08:57:00.320Z,99200.61
2019-03-05T08:59:32.763Z,99223.36
2019-03-05T09:02:04.420Z,99238.36
2019-03-05T09:04:36.114Z,99232.20
2019-03-05T09:07:07.863Z,99234.67
2019-03-05T09:09:39.500Z,99237.22
2019-03-05T09:12:11.857Z,99245.03
2019-03-05T09:14:43.788Z,99244.56
2019-03-05T09:17:16.094Z,99238.77
2019-03-05T09:19:47.689Z,99254.60
2019-03-05T09:22:19.368Z,99252.10
2019-03-05T09:24:50.939Z,99254.80
2019-03-05T09:27:22.825Z,99263.81
2019-03-05T09:29:54.356Z,99266.79
2019-03-05T09:32:26.309Z,99285.28
2019-03-05T09:34:57.763Z,99271.39
2019-03-05T09:37:29.505Z,99270.00
2019-03-05T09:40:01.319Z,99269.67
2019-03-05T09:42:39.742Z,99282.66
2019-03-05T09:45:07.634Z,99265.36
2019-03-05T09:47:39.360Z,99272.79
2019-03-05T09:50:12.698Z,99283.44
2019-03-05T09:52:54.461Z,99265.44
2019-03-05T09:55:19.444Z,99287.64
2019-03-05T09:58:06.845Z,99285.56
2019-03-05T10:00:29.237Z,99287.40
2019-03-05T10:03:01.192Z,99284.10
2019-03-05T10:05:33.103Z,99292.80
2019-03-05T10:08:04.873Z,99299.52
2019-03-05T10:10:37.083Z,99312.34
2019-03-05T10:13:09.128Z,99295.34
2019-03-05T10:15:41.668Z,99283.19
2019-03-05T10:18:13.369Z,99308.69
2019-03-05T10:20:45.789Z,99317.31
2019-03-05T10:23:17.268Z,99313.41
2019-03-05T10:25:48.829Z,99303.25
2019-03-05T10:28:20.474Z,99320.48
2019-03-05T10:30:52.098Z,99324.77
2019-03-05T10:33:23.824Z,99326.37
2019-03-05T10:35:55.975Z,99319.92
2019-03-05T10:38:27.629Z,99324.34
2019-03-05T10:40:59.684Z,99324.77
2019-03-05T10:43:31.583Z,99323.86
2019-03-05T10:46:03.153Z,99329.19
2019-03-05T10:48:34.940Z,99325.65
2019-03-05T10:51:06.750Z,99338.92
2019-03-05T10:53:38.729Z,99344.68
2019-03-05T10:56:10.443Z,99349.38
2019-03-05T10:58:42.236Z,99345.67
2019-03-05T11:01:14.616Z,99346.15
2019-03-05T11:03:46.511Z,99345.83
2019-03-05T11:06:18.211Z,99355.73
2019-03-05T11:08:51.155Z,99363.05
2019-03-05T11:11:23.744Z,99358.91
2019-03-05T11:13:55.373Z,99369.89
2019-03-05T11:16:31.101Z,99363.84
2019-03-05T11:19:00.964Z,99366.80
2019-03-05T11:21:32.900Z,99371.83
2019-03-05T11:24:04.800Z,99375.50
2019-03-05T11:26:36.692Z,99379.28
2019-03-05T11:29:08.492Z,99379.29
2019-03-05T11:31:40.600Z,99366.61
2019-03-05T11:34:13.340Z,99364.77
2019-03-05T11:36:45.259Z,99367.69
2019-03-05T11:39:17.535Z,99374.34
2019-03-05T11:41:49.028Z,99381.59
2019-03-05T11:44:20.591Z,99392.22
2019-03-05T11:46:52.194Z,99396.67
2019-03-05T11:49:24.002Z,99378.28
2019-03-05T11:51:55.696Z,99395.41
2019-03-05T11:54:27.498Z,99378.77
2019-03-05T11:57:01.450Z,99395.50
2019-03-05T11:59:32.269Z,99393.69
2019-03-05T12:02:05.727Z,99415.13
2019-03-05T12:04:37.192Z,99432.03
2019-03-05T12:07:08.800Z,99434.14
2019-03-05T12:09:40.314Z,99433.30
2019-03-05T12:12:11.781Z,99431.74
2019-03-05T12:14:43.426Z,99438.91
2019-03-05T12:17:14.866Z,99437.55
2019-03-05T12:19:46.447Z,99439.49
2019-03-05T12:22:18.365Z,99446.17
2019-03-05T12:24:49.710Z,99440.50
2019-03-05T12:27:21.763Z,99436.35
2019-03-05T12:29:53.564Z,99439.72
2019-03-05T12:32:25.178Z,99446.02
2019-03-05T12:34:57.084Z,99445.28
2019-03-05T12:37:29.227Z,99448.98
2019-03-05T12:40:00.859Z,99439.15
2019-03-05T12:42:32.578Z,99447.94
2019-03-05T12:45:04.155Z,99432.22
2019-03-05T12:47:35.979Z,99439.17
2019-03-05T12:50:09.695Z,99439.19
2019-03-05T12:52:41.306Z,99443.77
2019-03-05T12:55:13.295Z,99441.02
2019-03-05T12:57:45.187Z,99438.87
2019-03-05T13:00:20.593Z,99462.81
2019-03-05T13:02:52.726Z,99445.09
2019-03-05T13:05:24.346Z,99460.28
2019-03-05T13:07:56.383Z,99462.16
2019-03-05T13:10:34.814Z,99461.63
2019-03-05T13:13:01.861Z,99462.03
2019-03-05T13:15:33.522Z,99473.47
2019-03-05T13:18:04.986Z,99486.52
2019-03-05T13:20:36.477Z,99487.73
2019-03-05T13:23:09.630Z,99488.20
2019-03-05T13:25:41.391Z,99485.67
2019-03-05T13:28:13.102Z,99497.44
2019-03-05T13:30:44.623Z,99483.34
2019-03-05T13:33:16.290Z,99498.14
2019-03-05T13:35:47.876Z,99509.83
2019-03-05T13:38:19.541Z,99502.18
2019-03-05T13:40:51.004Z,99513.81
2019-03-05T13:43:22.619Z,99510.73
2019-03-05T13:45:54.183Z,99511.13
2019-03-05T13:49:18.025Z,99520.52
2019-03-05T13:52:22.490Z,99526.25
2019-03-05T13:55:26.874Z,99532.11
2019-03-05T13:58:24.239Z,99535.64
2019-03-05T14:00:56.086Z,99538.13
2019-03-05T14:03:55.173Z,99537.07
2019-03-05T14:07:08.704Z,99535.22
2019-03-05T14:09:38.321Z,99534.78
2019-03-05T14:12:09.922Z,99542.92
2019-03-05T14:14:41.548Z,99549.58
2019-03-05T14:17:15.049Z,99554.70
2019-03-05T14:19:46.702Z,99558.05
2019-03-05T14:22:19.045Z,99571.25
2019-03-05T14:25:01.623Z,99542.30
2019-03-05T14:27:24.186Z,99544.09
2019-03-05T14:29:55.844Z,99542.21
2019-03-05T14:32:27.203Z,99552.18
2019-03-05T14:35:03.246Z,99551.18
2019-03-05T14:37:34.969Z,99568.23
2019-03-05T14:40:23.405Z,99577.87
2019-03-05T14:42:42.599Z,99570.14
2019-03-05T14:45:20.778Z,99592.23
2019-03-05T14:47:54.601Z,99586.27
2019-03-05T14:50:26.365Z,99584.36
2019-03-05T14:52:57.971Z,99578.11
2019-03-05T14:55:29.746Z,99580.02
2019-03-05T14:58:01.300Z,99591.36
2019-03-05T15:00:34.112Z,99589.33
2019-03-05T15:03:05.893Z,99601.14
2019-03-05T15:05:37.669Z,99604.09
2019-03-05T15:08:09.332Z,99611.02
2019-03-05T15:10:40.831Z,99597.20
2019-03-05T15:13:17.378Z,99614.94
2019-03-05T15:15:45.732Z,99613.53
2019-03-05T15:18:17.512Z,99614.41
2019-03-05T15:20:49.222Z,99608.28
2019-03-05T15:23:21.063Z,99627.45
2019-03-05T15:25:52.567Z,99617.94
2019-03-05T15:28:24.319Z,99607.55
2019-03-05T15:30:56.255Z,99618.84
2019-03-05T15:33:27.690Z,99627.77
2019-03-05T15:35:59.243Z,99627.95
2019-03-05T15:38:31.175Z,99620.02
2019-03-05T15:41:02.710Z,99635.81
2019-03-05T15:43:34.237Z,99630.19
2019-03-05T15:46:06.322Z,99638.47
2019-03-05T15:48:38.094Z,99648.02
2019-03-05T15:51:09.989Z,99640.73
2019-03-05T15:53:41.562Z,99645.08
2019-03-05T15:56:13.292Z,99641.67
2019-03-05T15:58:44.820Z,99648.31
2019-03-05T16:01:22.168Z,99640.39
2019-03-05T16:03:50.269Z,99655.30
2019-03-05T16:06:21.828Z,99656.20
2019-03-05T16:08:53.421Z,99660.56
2019-03-05T16:11:24.873Z,99662.37
2019-03-05T16:13:56.935Z,99665.80
2019-03-05T16:16:29.581Z,99675.47
2019-03-05T16:19:04.074Z,99683.80
2019-03-05T16:21:37.119Z,99678.61
2019-03-05T16:24:09.025Z,99684.28
2019-03-05T16:26:40.888Z,99674.68
2019-03-05T16:29:16.300Z,99686.92
2019-03-05T16:31:49.824Z,99693.95
2019-03-05T16:34:22.572Z,99693.97
2019-03-05T16:37:10.856Z,99697.08
2019-03-05T16:39:56.130Z,99698.80
2019-03-05T16:42:32.291Z,99700.56
2019-03-05T16:45:07.425Z,99711.97
2019-03-05T16:47:43.686Z,99710.73
2019-03-05T16:50:17.177Z,99706.36
2019-03-05T16:52:53.364Z,99727.36
2019-03-05T16:55:27.013Z,99728.75
2019-03-05T16:58:16.773Z,99724.44
2019-03-05T17:00:56.001Z,99732.72
2019-03-05T17:03:32.158Z,99744.09
2019-03-05T17:06:22.866Z,99744.11
2019-03-05T17:09:05.724Z,99750.21
2019-03-05T17:11:55.377Z,99750.68
2019-03-05T17:14:27.623Z,99762.13
2019-03-05T17:16:59.144Z,99762.57
2019-03-05T17:19:32.470Z,99766.95
2019-03-05T17:22:05.308Z,99767.84
2019-03-05T17:24:37.121Z,99757.39
2019-03-05T17:27:08.754Z,99761.76
2019-03-05T17:29:41.871Z,99783.14
2019-03-05T17:32:13.903Z,99789.67
2019-03-05T17:34:46.030Z,99797.50
2019-03-05T17:37:17.750Z,99794.03
2019-03-05T17:39:49.530Z,99787.11
2019-03-05T17:42:21.463Z,99802.37
2019-03-05T17:44:54.317Z,99802.84
2019-03-05T17:47:25.970Z,99801.09
2019-03-05T17:49:57.714Z,99810.25
2019-03-05T17:52:29.455Z,99809.83
2019-03-05T17:55:01.336Z,99805.47
2019-03-05T17:57:33.090Z,99822.47
2019-03-05T18:00:05.143Z,99818.56
2019-03-05T18:02:36.963Z,99828.17
2019-03-05T18:05:09.401Z,99829.91
2019-03-05T18:07:41.097Z,99832.94
2019-03-05T18:10:13.352Z,99834.27
2019-03-05T18:12:45.172Z,99842.16
2019-03-05T18:15:17.253Z,99845.64
2019-03-05T18:17:48.890Z,99858.33
2019-03-05T18:20:21.043Z,99864.40
2019-03-05T18:22:53.231Z,99865.34
2019-03-05T18:25:24.588Z,99861.86
2019-03-05T18:27:57.250Z,99858.41
2019-03-05T18:30:28.843Z,99864.98
2019-03-05T18:33:00.923Z,99885.92
2019-03-05T18:35:32.943Z,99878.97
2019-03-05T18:38:07.971Z,99878.95
2019-03-05T18:40:39.483Z,99873.73
2019-03-05T18:43:11.247Z,99877.66
2019-03-05T18:45:42.935Z,99879.83
2019-03-05T18:48:14.972Z,99887.23
2019-03-05T18:50:47.049Z,99884.19
2019-03-05T18:53:19.194Z,99884.19
2019-03-05T18:55:50.900Z,99888.56
2019-03-05T18:58:23.181Z,99888.55
2019-03-05T19:00:54.932Z,99894.70
2019-03-05T19:03:26.790Z,99904.28
2019-03-05T19:05:58.562Z,99894.25
2019-03-05T19:08:30.887Z,99899.97
2019-03-05T19:11:02.552Z,99906.09
2019-03-05T19:13:35.134Z,99905.22
2019-03-05T19:16:07.195Z,99904.34
2019-03-05T19:18:38.856Z,99905.66
2019-03-05T19:21:11.290Z,99904.38
2019-03-05T19:23:43.215Z,99910.48
2019-03-05T19:26:15.550Z,99919.19
2019-03-05T19:28:47.257Z,99922.70
2019-03-05T19:31:33.081Z,99927.97
2019-03-05T19:34:04.904Z,99937.55
2019-03-05T19:36:36.492Z,99945.84
2019-03-05T19:39:08.649Z,99953.27
2019-03-05T19:41:41.898Z,99955.02
2019-03-05T19:44:13.661Z,99962.41
2019-03-05T19:46:45.566Z,99964.60
2019-03-05T19:49:17.250Z,99964.59
2019-03-05T19:51:48.941Z,99964.16
2019-03-05T19:54:21.380Z,99971.55
2019-03-05T19:56:53.202Z,99972.88
2019-03-05T19:59:24.812Z,99988.13
2019-03-05T20:01:56.237Z,99989.41
2019-03-05T20:04:27.872Z,99992.91
2019-03-05T20:06:59.674Z,99993.33
2019-03-05T20:09:31.796Z,99997.68
2019-03-05T20:12:03.529Z,99995.08
2019-03-05T20:14:35.322Z,100009.91
2019-03-05T20:17:07.039Z,100005.09
2019-03-05T20:19:38.762Z,100014.25
2019-03-05T20:22:10.588Z,100014.25
2019-03-05T20:24:42.323Z,100016.87
2019-03-05T20:27:16.299Z,100023.40
2019-03-05T20:29:47.388Z,100026.45
2019-03-05T20:32:19.257Z,100020.36
2019-03-05T20:34:51.070Z,100032.56
2019-03-05T20:37:22.930Z,100041.70
2019-03-05T20:39:55.167Z,100052.59
2019-03-05T20:42:26.848Z,100052.17
2019-03-05T20:44:59.109Z,100046.92
2019-03-05T20:47:30.740Z,100059.58
2019-03-05T20:50:02.546Z,100058.28
2019-03-05T20:52:35.922Z,100066.98
2019-03-05T20:55:10.335Z,100078.74
2019-03-05T20:57:42.328Z,100072.64
2019-03-05T21:00:33.155Z,100087.03
2019-03-05T21:03:05.564Z,100081.35
2019-03-05T21:05:41.601Z,100099.66
2019-03-05T21:08:13.662Z,100092.70
2019-03-05T21:10:45.638Z,100093.12
2019-03-05T21:13:17.544Z,100112.74
2019-03-05T21:15:49.421Z,100114.06
2019-03-05T21:18:21.585Z,100117.97
2019-03-05T21:20:53.495Z,100122.77
2019-03-05T21:23:25.312Z,100134.09
2019-03-05T21:25:56.976Z,100134.09
2019-03-05T21:28:28.671Z,100142.36
2019-03-05T21:31:00.318Z,100146.25
2019-03-05T21:33:32.689Z,100158.91
2019-03-05T21:36:04.442Z,100174.98
2019-03-05T21:38:35.994Z,100171.06
2019-03-05T21:41:07.554Z,100187.59
2019-03-05T21:43:39.568Z,100204.55
2019-03-05T21:46:14.917Z,100206.27
2019-03-05T21:48:46.717Z,100206.23
2019-03-05T21:51:18.307Z,100214.89
2019-03-05T21:53:49.959Z,100217.05
2019-03-05T21:56:21.997Z,100219.66
2019-03-05T21:58:53.506Z,100227.03
2019-03-05T22:01:25.283Z,100233.17
2019-03-05T22:03:57.107Z,100238.39
2019-03-05T22:06:29.367Z,100237.48
2019-03-05T22:09:01.294Z,100247.50
2019-03-05T22:11:36.393Z,100251.80
2019-03-05T22:14:09.204Z,100250.99
2019-03-05T22:16:41.221Z,100260.09
2019-03-05T22:19:12.991Z,100264.02
2019-03-05T22:21:44.821Z,100261.74
2019-03-05T22:24:16.492Z,100267.42
2019-03-05T22:26:47.995Z,100273.48
2019-03-05T22:29:19.640Z,100275.17
2019-03-05T22:31:51.642Z,100279.97
2019-03-05T22:34:23.744Z,100286.49
2019-03-05T22:36:55.714Z,100287.75
2019-03-05T22:39:27.698Z,100294.75
2019-03-05T22:41:59.524Z,100292.09
2019-03-05T22:44:31.412Z,100302.11
2019-03-05T22:47:03.180Z,100308.95
2019-03-05T22:49:35.143Z,100315.47
2019-03-05T22:52:07.292Z,100318.50
2019-03-05T22:54:39.052Z,100327.98
2019-03-05T22:57:10.542Z,100329.30
2019-03-05T22:59:42.196Z,100328.52
2019-03-05T23:02:13.824Z,100331.44
2019-03-05T23:04:46.554Z,100326.64
2019-03-05T23:07:18.079Z,100334.00
2019-03-05T23:09:49.868Z,100327.89
2019-03-05T23:12:21.410Z,100334.84
2019-03-05T23:14:55.918Z,100340.89
2019-03-05T23:17:27.763Z,100346.02
2019-03-05T23:20:00.056Z,100352.20
2019-03-05T23:22:31.641Z,100350.85
2019-03-05T23:25:03.753Z,100353.81
2019-03-05T23:27:36.860Z,100358.25
2019-03-05T23:30:10.747Z,100364.34
2019-03-05T23:32:43.131Z,100367.80
2019-03-05T23:35:16.359Z,100365.24
2019-03-05T23:37:48.048Z,100372.95
2019-03-05T23:40:20.155Z,100377.83
2019-03-05T23:42:51.893Z,100378.16
2019-03-05T23:45:23.436Z,100383.39
2019-03-05T23:47:55.166Z,100382.55
2019-03-05T23:50:27.027Z,100387.28
2019-03-05T23:52:58.962Z,100392.52
2019-03-05T23:55:31.035Z,100394.62
2019-03-05T23:58:02.850Z,100400.68
